createdAt,value
2022-11-27T00:00:10.155Z,5.78
2022-11-27T00:05:16.589Z,5.79
2022-11-27T00:10:20.367Z,5.78
2022-11-27T00:15:22.614Z,5.74
2022-11-27T00:20:29.711Z,5.75
2022-11-27T00:25:32.098Z,5.75
2022-11-27T00:30:33.779Z,5.74
2022-11-27T00:35:35.433Z,5.76
2022-11-27T00:40:37.159Z,5.74
2022-11-27T00:45:38.961Z,5.74
2022-11-27T00:50:42.690Z,5.75
2022-11-27T00:55:51.996Z,5.71
2022-11-27T01:00:57.437Z,5.69
2022-11-27T01:06:06.281Z,5.64
2022-11-27T01:11:08.170Z,5.58
2022-11-27T01:16:16.423Z,5.53
2022-11-27T01:21:20.081Z,5.45
2022-11-27T01:26:24.603Z,5.39
2022-11-27T01:31:28.772Z,5.30
2022-11-27T01:36:31.999Z,5.25
2022-11-27T01:41:39.783Z,5.18
2022-11-27T01:46:48.786Z,5.11
2022-11-27T01:52:15.355Z,5.04
2022-11-27T01:57:24.104Z,4.95
2022-11-27T02:02:28.661Z,4.86
2022-11-27T02:07:36.544Z,4.80
2022-11-27T02:12:47.076Z,4.74
2022-11-27T02:18:11.676Z,4.68
2022-11-27T02:23:40.528Z,4.62
2022-11-27T02:28:51.032Z,4.65
2022-11-27T02:33:55.219Z,4.62
2022-11-27T02:39:06.045Z,4.60
2022-11-27T02:44:09.310Z,4.49
2022-11-27T02:49:16.977Z,4.53
2022-11-27T02:54:27.860Z,4.47
2022-11-27T02:59:33.937Z,4.44
2022-11-27T03:04:41.886Z,4.39
2022-11-27T03:09:48.796Z,4.35
2022-11-27T03:14:53.015Z,4.30
2022-11-27T03:19:58.862Z,4.28
2022-11-27T03:25:01.074Z,4.27
2022-11-27T03:30:09.864Z,4.21
2022-11-27T03:35:15.621Z,4.22
2022-11-27T03:40:18.294Z,4.21
2022-11-27T03:45:50.281Z,4.17
2022-11-27T03:51:18.976Z,4.11
2022-11-27T03:56:41.910Z,4.08
2022-11-27T04:01:43.799Z,4.08
2022-11-27T04:06:50.089Z,4.01
2022-11-27T04:11:51.759Z,4.05
2022-11-27T04:17:00.299Z,3.99
2022-11-27T04:22:04.042Z,3.97
2022-11-27T04:27:05.723Z,3.93
2022-11-27T04:32:10.233Z,3.91
2022-11-27T04:37:11.975Z,3.84
2022-11-27T04:42:16.915Z,3.88
2022-11-27T04:47:20.887Z,3.84
2022-11-27T04:52:24.821Z,3.78
2022-11-27T04:57:28.852Z,3.74
2022-11-27T05:02:30.638Z,3.70
2022-11-27T05:07:32.460Z,3.65
2022-11-27T05:12:34.194Z,3.55
2022-11-27T05:17:35.883Z,3.46
2022-11-27T05:22:40.238Z,3.44
2022-11-27T05:27:48.875Z,3.42
2022-11-27T05:32:55.302Z,3.43
2022-11-27T05:37:59.173Z,3.47
2022-11-27T05:43:07.184Z,3.48
2022-11-27T05:48:10.947Z,3.46
2022-11-27T05:53:12.670Z,3.47
2022-11-27T05:58:18.966Z,3.44
2022-11-27T06:03:20.673Z,3.44
2022-11-27T06:08:22.634Z,3.44
2022-11-27T06:13:24.377Z,3.46
2022-11-27T06:18:26.024Z,3.41
2022-11-27T06:23:27.708Z,3.42
2022-11-27T06:28:29.353Z,3.41
2022-11-27T06:33:31.178Z,3.37
2022-11-27T06:38:36.728Z,3.33
2022-11-27T06:43:41.609Z,3.32
2022-11-27T06:48:50.928Z,3.32
2022-11-27T06:53:56.170Z,3.30
2022-11-27T06:59:02.347Z,3.30
2022-11-27T07:04:04.610Z,3.28
2022-11-27T07:09:09.868Z,3.25
2022-11-27T07:14:11.741Z,3.20
2022-11-27T07:19:24.700Z,3.16
2022-11-27T07:24:27.096Z,3.12
2022-11-27T07:29:31.092Z,3.13
2022-11-27T07:34:34.852Z,3.14
2022-11-27T07:40:00.672Z,3.17
2022-11-27T07:45:00.616Z,3.22
2022-11-27T07:50:07.352Z,3.28
2022-11-27T07:55:11.890Z,3.33
2022-11-27T08:00:14.050Z,3.37
2022-11-27T08:05:18.100Z,3.43
2022-11-27T08:10:19.935Z,3.52
2022-11-27T08:15:26.343Z,3.62
2022-11-27T08:20:30.550Z,3.74
2022-11-27T08:25:35.005Z,3.88
2022-11-27T08:30:37.882Z,4.08
2022-11-27T08:35:48.470Z,4.20
2022-11-27T08:41:00.270Z,4.24
2022-11-27T08:46:06.951Z,4.23
2022-11-27T08:51:15.712Z,4.20
2022-11-27T08:56:21.991Z,4.16
2022-11-27T09:01:29.339Z,4.20
2022-11-27T09:06:36.375Z,4.20
2022-11-27T09:11:42.690Z,4.32
2022-11-27T09:16:48.231Z,4.46
2022-11-27T09:21:50.566Z,4.46
2022-11-27T09:26:52.401Z,4.49
2022-11-27T09:31:56.429Z,4.52
2022-11-27T09:36:58.245Z,4.53
2022-11-27T09:42:04.442Z,4.60
2022-11-27T09:47:18.733Z,4.64
2022-11-27T09:52:40.890Z,4.63
2022-11-27T09:57:54.622Z,4.63
2022-11-27T10:02:58.662Z,4.83
2022-11-27T10:08:17.085Z,4.77
2022-11-27T10:13:43.534Z,4.75
2022-11-27T10:18:54.541Z,4.73
2022-11-27T10:24:19.887Z,4.78
2022-11-27T10:29:27.458Z,4.84
2022-11-27T10:34:38.598Z,4.91
2022-11-27T10:39:45.243Z,5.00
2022-11-27T10:44:59.994Z,5.08
2022-11-27T10:50:16.043Z,5.19
2022-11-27T10:55:25.647Z,5.28
2022-11-27T11:00:31.741Z,5.28
2022-11-27T11:05:56.947Z,5.34
2022-11-27T11:10:57.546Z,5.36
2022-11-27T11:16:34.964Z,5.39
2022-11-27T11:21:42.567Z,5.42
2022-11-27T11:26:52.854Z,5.43
2022-11-27T11:31:55.643Z,5.48
2022-11-27T11:37:05.113Z,5.50
2022-11-27T11:42:27.690Z,5.53
2022-11-27T11:47:29.474Z,5.56
2022-11-27T11:53:02.266Z,5.62
2022-11-27T11:58:10.167Z,5.65
2022-11-27T12:03:29.742Z,5.67
2022-11-27T12:09:13.432Z,5.70
2022-11-27T12:14:29.746Z,5.71
2022-11-27T12:19:49.248Z,5.79
2022-11-27T12:25:03.875Z,5.81
2022-11-27T12:30:16.800Z,5.86
2022-11-27T12:35:34.893Z,5.84
2022-11-27T12:41:04.870Z,5.83
2022-11-27T12:46:32.460Z,5.80
2022-11-27T12:52:14.453Z,5.78
2022-11-27T12:57:34.294Z,5.75
2022-11-27T13:03:00.283Z,5.71
2022-11-27T13:08:13.192Z,5.71
2022-11-27T13:13:20.494Z,5.71
2022-11-27T13:18:43.948Z,5.69
2022-11-27T13:23:47.988Z,5.67
2022-11-27T13:28:53.405Z,5.69
2022-11-27T13:34:05.007Z,5.64
2022-11-27T13:39:18.945Z,5.63
2022-11-27T13:44:25.047Z,5.60
2022-11-27T13:49:33.169Z,5.60
2022-11-27T13:54:34.960Z,5.57
2022-11-27T13:59:39.449Z,5.52
2022-11-27T14:04:55.867Z,5.52
2022-11-27T14:10:12.830Z,5.48
2022-11-27T14:15:20.279Z,5.48
2022-11-27T14:20:51.824Z,5.45
2022-11-27T14:26:05.414Z,5.44
2022-11-27T14:31:40.928Z,5.43
2022-11-27T14:36:42.869Z,5.42
2022-11-27T14:41:44.587Z,5.41
2022-11-27T14:46:51.323Z,5.40
2022-11-27T14:51:56.090Z,5.40
2022-11-27T14:57:00.878Z,5.38
2022-11-27T15:02:14.181Z,5.36
2022-11-27T15:07:23.225Z,5.36
2022-11-27T15:12:32.533Z,5.35
2022-11-27T15:17:37.150Z,5.35
2022-11-27T15:22:49.595Z,5.33
2022-11-27T15:27:51.551Z,5.32
2022-11-27T15:32:56.844Z,5.32
2022-11-27T15:38:05.320Z,5.33
2022-11-27T15:43:14.896Z,5.33
2022-11-27T15:48:24.341Z,5.32
2022-11-27T15:53:28.579Z,5.33
2022-11-27T15:58:31.007Z,5.36
2022-11-27T16:03:35.760Z,5.36
2022-11-27T16:08:41.070Z,5.37
2022-11-27T16:13:43.863Z,5.38
2022-11-27T16:18:47.844Z,5.72
2022-11-27T16:23:56.445Z,5.60
2022-11-27T16:29:03.592Z,5.54
2022-11-27T16:34:06.628Z,5.50
2022-11-27T16:39:08.554Z,5.48
2022-11-27T16:44:16.682Z,5.48
2022-11-27T16:49:19.063Z,5.45
2022-11-27T16:54:28.503Z,5.46
2022-11-27T16:59:38.018Z,5.46
2022-11-27T17:04:45.988Z,5.45
2022-11-27T17:09:59.851Z,5.45
2022-11-27T17:15:04.452Z,5.47
2022-11-27T17:20:09.642Z,5.48
2022-11-27T17:25:15.458Z,5.49
2022-11-27T17:30:19.440Z,5.51
2022-11-27T17:35:27.864Z,5.50
2022-11-27T17:40:32.808Z,5.50
2022-11-27T17:45:41.354Z,5.49
2022-11-27T17:50:45.452Z,5.49
2022-11-27T17:55:55.568Z,5.48
2022-11-27T18:00:57.772Z,5.48
2022-11-27T18:06:06.656Z,5.48
2022-11-27T18:11:25.011Z,5.49
2022-11-27T18:16:32.603Z,5.73
2022-11-27T18:21:40.260Z,5.66
2022-11-27T18:32:08.797Z,5.64
2022-11-27T18:37:12.032Z,5.65
2022-11-27T18:42:17.047Z,5.64
2022-11-27T18:47:20.037Z,5.62
2022-11-27T18:52:24.238Z,5.62
2022-11-27T18:57:26.160Z,5.62
2022-11-27T19:02:30.483Z,5.63
2022-11-27T19:07:32.295Z,5.62
2022-11-27T19:12:36.488Z,5.63
2022-11-27T19:17:40.287Z,5.63
2022-11-27T19:22:42.361Z,5.61
2022-11-27T19:27:49.315Z,5.61
2022-11-27T19:32:51.168Z,5.61
2022-11-27T19:37:55.441Z,5.60
2022-11-27T19:43:00.971Z,5.61
2022-11-27T19:48:11.639Z,5.62
2022-11-27T19:53:13.451Z,5.59
2022-11-27T19:58:20.627Z,5.58
2022-11-27T20:03:22.660Z,5.60
2022-11-27T20:08:29.134Z,5.61
2022-11-27T20:13:31.316Z,5.60
2022-11-27T20:18:36.283Z,5.61
2022-11-27T20:23:41.968Z,5.60
2022-11-27T20:28:46.215Z,5.61
2022-11-27T20:33:52.022Z,5.60
2022-11-27T20:38:57.582Z,5.60
2022-11-27T20:44:04.581Z,5.60
2022-11-27T20:49:06.438Z,5.63
2022-11-27T20:54:09.326Z,5.63
2022-11-27T20:59:12.521Z,5.63
2022-11-27T21:04:24.058Z,5.65
2022-11-27T21:09:29.569Z,5.64
2022-11-27T21:14:33.770Z,5.63
2022-11-27T21:19:39.954Z,5.63
2022-11-27T21:24:44.251Z,5.61
2022-11-27T21:29:46.320Z,5.60
2022-11-27T21:34:53.855Z,5.60
2022-11-27T21:39:56.388Z,5.57
2022-11-27T21:44:59.208Z,5.57
2022-11-27T21:50:00.974Z,5.57
2022-11-27T21:55:05.601Z,5.56
2022-11-27T22:00:13.439Z,5.57
2022-11-27T22:05:21.629Z,5.55
2022-11-27T22:10:23.459Z,5.53
2022-11-27T22:15:27.413Z,5.51
2022-11-27T22:20:31.458Z,5.53
2022-11-27T22:25:35.587Z,5.50
2022-11-27T22:30:39.931Z,5.49
2022-11-27T22:35:44.134Z,5.48
2022-11-27T22:40:45.912Z,5.46
2022-11-27T22:45:50.163Z,5.45
2022-11-27T22:50:58.996Z,5.44
2022-11-27T22:56:06.855Z,5.43
2022-11-27T23:01:20.826Z,5.45
2022-11-27T23:06:26.315Z,5.43
2022-11-27T23:11:28.642Z,5.42
2022-11-27T23:16:33.543Z,5.41
2022-11-27T23:21:37.590Z,5.43
2022-11-27T23:26:41.963Z,5.43
2022-11-27T23:31:43.792Z,5.44
2022-11-27T23:36:50.359Z,5.42
2022-11-27T23:41:54.552Z,5.40
2022-11-27T23:46:58.625Z,5.39
2022-11-27T23:52:00.570Z,5.37
2022-11-27T23:57:03.315Z,5.37
